createdAt,value
2023-03-26T00:02:40.423Z,38.00
2023-03-26T00:05:32.085Z,37.71
2023-03-26T00:08:20.674Z,37.67
2023-03-26T00:11:10.850Z,37.58
2023-03-26T00:13:59.765Z,37.45
2023-03-26T00:16:49.948Z,37.78
2023-03-26T00:19:38.932Z,37.64
2023-03-26T00:22:29.251Z,37.53
2023-03-26T00:25:18.063Z,37.68
2023-03-26T00:28:07.631Z,37.69
2023-03-26T00:31:00.104Z,37.36
2023-03-26T00:33:48.753Z,37.54
2023-03-26T00:36:37.321Z,37.41
2023-03-26T00:39:29.198Z,37.37
2023-03-26T00:42:17.858Z,37.21
2023-03-26T00:45:07.701Z,37.16
2023-03-26T00:47:56.408Z,37.22
2023-03-26T00:50:47.201Z,36.54
2023-03-26T00:53:38.207Z,37.14
2023-03-26T00:56:30.813Z,36.80
2023-03-26T00:59:22.435Z,36.93
2023-03-26T01:02:17.228Z,36.86
2023-03-26T01:05:43.081Z,36.99
2023-03-26T01:08:34.968Z,36.95
2023-03-26T01:11:25.446Z,36.72
2023-03-26T01:14:18.369Z,37.12
2023-03-26T01:17:09.162Z,36.71
2023-03-26T01:20:12.365Z,36.78
2023-03-26T01:23:05.134Z,37.02
2023-03-26T01:25:59.711Z,36.81
2023-03-26T01:28:48.626Z,36.95
2023-03-26T01:31:41.561Z,37.09
2023-03-26T01:34:35.231Z,37.39
2023-03-26T01:37:28.154Z,37.30
2023-03-26T01:40:19.807Z,36.99
2023-03-26T01:43:15.586Z,37.16
2023-03-26T01:46:08.724Z,36.87
2023-03-26T01:48:57.411Z,36.83
2023-03-26T01:51:46.098Z,37.10
2023-03-26T01:54:35.223Z,36.77
2023-03-26T01:57:32.868Z,36.67
2023-03-26T02:00:27.830Z,36.95
2023-03-26T02:03:24.719Z,37.01
2023-03-26T02:06:18.331Z,36.91
2023-03-26T02:09:09.074Z,36.59
2023-03-26T02:11:57.741Z,36.48
2023-03-26T02:14:47.712Z,36.54
2023-03-26T02:17:40.353Z,36.94
2023-03-26T02:20:30.252Z,36.89
2023-03-26T02:23:18.897Z,36.65
2023-03-26T02:26:08.662Z,36.82
2023-03-26T02:28:57.920Z,36.45
2023-03-26T02:31:47.330Z,36.99
2023-03-26T02:34:37.703Z,36.80
2023-03-26T02:37:26.552Z,36.69
2023-03-26T02:40:15.135Z,36.48
2023-03-26T02:43:03.817Z,36.60
2023-03-26T02:45:52.678Z,36.53
2023-03-26T02:48:42.563Z,36.64
2023-03-26T02:51:34.840Z,36.40
2023-03-26T02:54:23.602Z,36.90
2023-03-26T02:57:12.261Z,36.62
2023-03-26T03:00:02.511Z,36.56
2023-03-26T03:02:52.764Z,36.80
2023-03-26T03:05:43.304Z,37.05
2023-03-26T03:08:34.065Z,36.51
2023-03-26T03:11:24.627Z,36.81
2023-03-26T03:14:13.244Z,36.53
2023-03-26T03:17:02.041Z,36.77
2023-03-26T03:19:50.668Z,36.38
2023-03-26T03:22:39.427Z,36.51
2023-03-26T03:25:29.386Z,36.28
2023-03-26T03:28:18.330Z,36.59
2023-03-26T03:31:09.043Z,36.81
2023-03-26T03:33:57.738Z,36.46
2023-03-26T03:36:48.411Z,36.66
2023-03-26T03:39:37.060Z,36.53
2023-03-26T03:42:27.469Z,36.69
2023-03-26T03:45:16.446Z,36.76
2023-03-26T03:48:05.416Z,36.42
2023-03-26T03:50:54.064Z,36.43
2023-03-26T03:53:46.361Z,36.52
2023-03-26T03:56:36.107Z,36.10
2023-03-26T03:59:26.619Z,36.51
2023-03-26T04:02:21.193Z,36.27
2023-03-26T04:05:11.706Z,36.59
2023-03-26T04:08:00.668Z,36.32
2023-03-26T04:10:49.560Z,36.74
2023-03-26T04:13:38.554Z,36.78
2023-03-26T04:16:28.679Z,36.53
2023-03-26T04:19:17.611Z,36.75
2023-03-26T04:22:07.736Z,37.05
2023-03-26T04:24:56.274Z,36.83
2023-03-26T04:27:45.044Z,37.10
2023-03-26T04:30:36.582Z,37.33
2023-03-26T04:33:28.388Z,36.70
2023-03-26T04:36:17.762Z,37.22
2023-03-26T04:39:06.844Z,36.88
2023-03-26T04:41:55.396Z,37.53
2023-03-26T04:44:44.023Z,37.35
2023-03-26T04:47:36.810Z,37.77
2023-03-26T04:50:27.653Z,37.82
2023-03-26T04:53:19.549Z,37.44
2023-03-26T04:56:13.620Z,37.80
2023-03-26T04:59:03.376Z,37.48
2023-03-26T05:01:52.722Z,37.33
2023-03-26T05:04:43.982Z,37.34
2023-03-26T05:07:35.789Z,37.18
2023-03-26T05:10:24.568Z,37.45
2023-03-26T05:13:13.202Z,37.33
2023-03-26T05:16:02.009Z,37.76
2023-03-26T05:18:51.548Z,37.43
2023-03-26T05:21:40.106Z,37.29
2023-03-26T05:24:30.462Z,37.44
2023-03-26T05:27:20.398Z,37.34
2023-03-26T05:30:10.064Z,36.74
2023-03-26T05:32:58.949Z,37.09
2023-03-26T05:35:49.465Z,37.02
2023-03-26T05:38:38.156Z,36.82
2023-03-26T05:41:28.252Z,37.15
2023-03-26T05:44:16.930Z,37.06
2023-03-26T05:47:05.894Z,37.10
2023-03-26T05:49:54.525Z,37.32
2023-03-26T05:52:45.600Z,37.63
2023-03-26T05:55:34.865Z,37.76
2023-03-26T05:58:25.205Z,37.92
2023-03-26T06:01:16.850Z,38.02
2023-03-26T06:04:05.677Z,37.75
2023-03-26T06:06:54.396Z,37.62
2023-03-26T06:09:43.685Z,37.86
2023-03-26T06:12:32.447Z,37.62
2023-03-26T06:15:22.595Z,38.01
2023-03-26T06:18:11.332Z,37.71
2023-03-26T06:21:00.769Z,37.65
2023-03-26T06:23:51.599Z,38.00
2023-03-26T06:26:40.313Z,38.00
2023-03-26T06:29:29.142Z,37.80
2023-03-26T06:32:20.315Z,38.06
2023-03-26T06:35:11.420Z,37.88
2023-03-26T06:38:00.718Z,37.91
2023-03-26T06:40:49.321Z,37.71
2023-03-26T06:43:39.111Z,38.21
2023-03-26T06:46:27.840Z,38.04
2023-03-26T06:49:18.846Z,37.94
2023-03-26T06:52:07.577Z,37.86
2023-03-26T06:54:56.305Z,37.85
2023-03-26T06:57:45.909Z,37.98
2023-03-26T07:00:35.788Z,38.00
2023-03-26T07:03:24.949Z,38.03
2023-03-26T07:06:16.167Z,37.89
2023-03-26T07:09:05.045Z,38.11
2023-03-26T07:11:53.720Z,37.87
2023-03-26T07:14:42.438Z,37.96
2023-03-26T07:17:31.242Z,37.95
2023-03-26T07:20:20.067Z,38.23
2023-03-26T07:23:12.122Z,37.97
2023-03-26T07:26:01.000Z,38.31
2023-03-26T07:29:04.770Z,38.29
2023-03-26T07:31:57.944Z,38.11
2023-03-26T07:34:53.081Z,38.13
2023-03-26T07:37:48.966Z,38.10
2023-03-26T07:40:47.564Z,37.84
2023-03-26T07:43:46.844Z,38.02
2023-03-26T07:46:37.101Z,37.96
2023-03-26T07:49:27.397Z,37.99
2023-03-26T07:52:16.615Z,38.36
2023-03-26T07:55:06.088Z,37.93
2023-03-26T07:58:08.448Z,38.18
2023-03-26T08:00:59.695Z,38.35
2023-03-26T08:04:24.145Z,37.96
2023-03-26T08:07:13.255Z,38.20
2023-03-26T08:10:08.260Z,37.85
2023-03-26T08:13:02.842Z,38.24
2023-03-26T08:15:57.774Z,38.36
2023-03-26T08:18:54.324Z,38.06
2023-03-26T08:21:48.001Z,38.12
2023-03-26T08:24:41.390Z,38.11
2023-03-26T08:27:39.147Z,38.13
2023-03-26T08:30:33.747Z,38.39
2023-03-26T08:33:23.576Z,38.20
2023-03-26T08:36:12.399Z,38.11
2023-03-26T08:39:01.340Z,38.18
2023-03-26T08:42:21.068Z,38.06
2023-03-26T08:45:30.567Z,38.04
2023-03-26T08:48:50.952Z,38.09
2023-03-26T08:52:03.414Z,38.23
2023-03-26T08:55:12.512Z,38.17
2023-03-26T08:58:20.428Z,37.98
2023-03-26T09:01:33.783Z,38.08
2023-03-26T09:04:35.423Z,37.97
2023-03-26T09:07:59.027Z,37.98
2023-03-26T09:10:53.691Z,37.91
2023-03-26T09:14:09.218Z,38.23
2023-03-26T09:17:21.387Z,38.03
2023-03-26T09:20:35.657Z,37.90
2023-03-26T09:23:56.229Z,38.08
2023-03-26T09:26:50.668Z,38.05
2023-03-26T09:30:16.885Z,38.44
2023-03-26T09:33:24.564Z,38.51
2023-03-26T09:36:36.233Z,37.88
2023-03-26T09:39:37.861Z,38.21
2023-03-26T09:42:34.088Z,38.40
2023-03-26T09:45:42.681Z,38.29
2023-03-26T09:48:54.138Z,38.40
2023-03-26T09:52:28.434Z,38.26
2023-03-26T09:55:35.770Z,38.49
2023-03-26T09:58:46.853Z,37.99
2023-03-26T10:01:40.809Z,37.93
2023-03-26T10:04:49.009Z,38.07
2023-03-26T10:07:49.357Z,37.87
2023-03-26T10:10:43.340Z,37.82
2023-03-26T10:13:36.460Z,37.69
2023-03-26T10:16:29.967Z,38.04
2023-03-26T10:19:41.749Z,37.87
2023-03-26T10:22:43.907Z,37.80
2023-03-26T10:25:52.808Z,37.84
2023-03-26T10:29:04.583Z,38.02
2023-03-26T10:31:55.745Z,37.79
2023-03-26T10:34:54.593Z,37.77
2023-03-26T10:37:56.034Z,37.76
2023-03-26T10:40:53.423Z,37.64
2023-03-26T10:44:32.291Z,37.42
2023-03-26T10:47:50.476Z,37.76
2023-03-26T10:50:56.313Z,38.13
2023-03-26T10:53:51.741Z,37.89
2023-03-26T10:56:42.571Z,38.08
2023-03-26T10:59:31.243Z,38.23
2023-03-26T11:02:29.142Z,38.16
2023-03-26T11:05:29.912Z,38.27
2023-03-26T11:08:31.563Z,38.01
2023-03-26T11:11:29.266Z,37.76
2023-03-26T11:14:33.712Z,37.53
2023-03-26T11:17:40.678Z,37.50
2023-03-26T11:20:38.076Z,37.39
2023-03-26T11:23:36.854Z,37.51
2023-03-26T11:26:31.714Z,36.97
2023-03-26T11:29:39.413Z,37.33
2023-03-26T11:32:33.064Z,37.09
2023-03-26T11:35:40.923Z,37.32
2023-03-26T11:38:37.899Z,36.93
2023-03-26T11:44:42.761Z,36.96
2023-03-26T11:47:37.687Z,37.04
2023-03-26T11:50:29.095Z,37.09
2023-03-26T11:53:20.534Z,35.92
2023-03-26T11:56:16.032Z,35.25
2023-03-26T11:59:11.511Z,36.13
2023-03-26T12:02:03.450Z,35.48
2023-03-26T12:04:55.822Z,35.35
2023-03-26T12:07:48.735Z,35.66
2023-03-26T12:10:39.181Z,35.44
2023-03-26T12:13:31.236Z,35.73
2023-03-26T12:16:23.458Z,34.04
2023-03-26T12:19:20.860Z,32.17
2023-03-26T12:22:30.617Z,29.82
2023-03-26T12:25:21.296Z,31.36
2023-03-26T12:28:19.401Z,32.68
2023-03-26T12:31:10.472Z,33.14
2023-03-26T12:34:11.694Z,33.30
2023-03-26T12:37:01.101Z,33.13
2023-03-26T12:40:07.500Z,33.15
2023-03-26T12:44:53.671Z,33.45
2023-03-26T12:47:57.291Z,33.32
2023-03-26T12:49:34.850Z,33.43
2023-03-26T12:52:43.341Z,33.66
2023-03-26T12:55:45.848Z,34.09
2023-03-26T12:58:54.982Z,34.17
2023-03-26T13:01:52.738Z,34.34
2023-03-26T13:05:06.062Z,34.34
2023-03-26T13:08:05.809Z,34.47
2023-03-26T13:10:57.736Z,34.95
2023-03-26T13:14:03.653Z,35.31
2023-03-26T13:16:58.519Z,35.51
2023-03-26T13:19:58.012Z,35.32
2023-03-26T13:22:55.351Z,34.77
2023-03-26T13:25:50.172Z,34.50
2023-03-26T13:28:52.025Z,34.51
2023-03-26T13:31:49.944Z,35.04
2023-03-26T13:34:46.350Z,34.66
2023-03-26T13:37:53.521Z,34.77
2023-03-26T13:40:51.973Z,34.68
2023-03-26T13:43:53.239Z,34.67
2023-03-26T13:46:44.401Z,34.94
2023-03-26T13:49:37.426Z,35.01
2023-03-26T13:52:29.379Z,34.55
2023-03-26T13:55:25.599Z,34.77
2023-03-26T13:58:19.588Z,35.14
2023-03-26T14:01:16.760Z,35.64
2023-03-26T14:04:27.300Z,34.69
2023-03-26T14:11:45.006Z,35.76
2023-03-26T14:14:40.045Z,36.69
2023-03-26T14:17:32.950Z,37.01
2023-03-26T14:20:56.393Z,35.62
2023-03-26T14:24:00.032Z,35.51
2023-03-26T14:27:00.233Z,35.28
2023-03-26T14:29:58.276Z,34.92
2023-03-26T14:32:56.003Z,34.62
2023-03-26T14:35:50.750Z,34.07
2023-03-26T14:39:11.041Z,33.94
2023-03-26T14:42:04.648Z,33.86
2023-03-26T14:45:21.513Z,34.07
2023-03-26T14:48:49.494Z,33.98
2023-03-26T14:51:52.211Z,33.98
2023-03-26T14:54:50.810Z,34.11
2023-03-26T14:58:04.803Z,33.83
2023-03-26T15:01:12.331Z,34.04
2023-03-26T15:04:30.610Z,34.27
2023-03-26T15:07:42.978Z,33.84
2023-03-26T15:11:16.257Z,34.04
2023-03-26T15:14:36.511Z,33.63
2023-03-26T15:17:44.992Z,33.43
2023-03-26T15:21:24.986Z,33.53
2023-03-26T15:24:46.501Z,33.45
2023-03-26T15:27:57.443Z,33.80
2023-03-26T15:31:11.476Z,34.32
2023-03-26T15:34:27.529Z,34.70
2023-03-26T15:37:47.922Z,34.57
2023-03-26T15:40:49.826Z,35.05
2023-03-26T15:44:24.922Z,34.88
2023-03-26T15:47:48.086Z,34.72
2023-03-26T15:50:47.553Z,34.80
2023-03-26T15:53:42.420Z,35.38
2023-03-26T15:56:44.754Z,35.54
2023-03-26T15:59:42.514Z,35.49
2023-03-26T16:02:40.519Z,35.52
2023-03-26T16:05:47.671Z,35.73
2023-03-26T16:08:41.161Z,35.75
2023-03-26T16:11:54.709Z,35.85
2023-03-26T16:14:46.943Z,35.84
2023-03-26T16:18:10.294Z,35.77
2023-03-26T16:21:47.913Z,36.05
2023-03-26T16:24:40.969Z,36.18
2023-03-26T16:27:41.793Z,36.26
2023-03-26T16:30:33.514Z,36.17
2023-03-26T16:33:29.493Z,36.49
2023-03-26T16:36:34.450Z,36.77
2023-03-26T16:39:27.535Z,37.38
2023-03-26T16:42:32.392Z,36.86
2023-03-26T16:45:24.435Z,37.34
2023-03-26T16:48:23.922Z,37.45
2023-03-26T16:51:17.275Z,37.02
2023-03-26T16:54:14.489Z,37.66
2023-03-26T16:57:13.774Z,37.52
2023-03-26T17:00:24.853Z,38.11
2023-03-26T17:03:29.166Z,38.41
2023-03-26T17:06:48.767Z,38.57
2023-03-26T17:09:44.892Z,38.39
2023-03-26T17:12:40.152Z,38.53
2023-03-26T17:15:37.985Z,38.75
2023-03-26T17:18:35.047Z,38.84
2023-03-26T17:21:28.937Z,39.14
2023-03-26T17:24:41.822Z,39.03
2023-03-26T17:27:36.262Z,38.68
2023-03-26T17:30:56.829Z,38.86
2023-03-26T17:33:46.179Z,38.75
2023-03-26T17:36:45.998Z,39.16
2023-03-26T17:40:36.888Z,39.07
2023-03-26T17:43:45.551Z,39.06
2023-03-26T17:46:36.321Z,38.57
2023-03-26T17:49:31.155Z,39.08
2023-03-26T17:52:22.511Z,39.48
2023-03-26T17:55:11.732Z,39.98
2023-03-26T17:58:01.546Z,39.97
2023-03-26T18:00:57.164Z,39.74
2023-03-26T18:03:49.505Z,40.16
2023-03-26T18:06:51.776Z,40.37
2023-03-26T18:09:53.092Z,40.09
2023-03-26T18:12:52.023Z,40.08
2023-03-26T18:15:53.554Z,40.33
2023-03-26T18:18:48.590Z,40.07
2023-03-26T18:21:39.202Z,40.46
2023-03-26T18:24:30.507Z,40.50
2023-03-26T18:27:22.322Z,40.65
2023-03-26T18:30:18.721Z,40.67
2023-03-26T18:33:15.393Z,40.57
2023-03-26T18:36:04.876Z,40.47
2023-03-26T18:38:58.537Z,40.85
2023-03-26T18:41:47.172Z,40.54
2023-03-26T18:44:37.707Z,40.84
2023-03-26T18:47:26.498Z,40.76
2023-03-26T18:50:20.717Z,40.71
2023-03-26T18:53:15.727Z,40.77
2023-03-26T18:56:20.166Z,40.44
2023-03-26T18:59:21.719Z,39.95
2023-03-26T19:02:14.277Z,40.35
2023-03-26T19:05:03.780Z,40.47
2023-03-26T19:07:56.760Z,40.57
2023-03-26T19:10:48.071Z,40.37
2023-03-26T19:13:38.424Z,40.20
2023-03-26T19:16:29.928Z,40.49
2023-03-26T19:19:20.632Z,40.71
2023-03-26T19:22:11.424Z,40.55
2023-03-26T19:25:04.586Z,40.94
2023-03-26T19:27:55.918Z,40.81
2023-03-26T19:30:44.939Z,41.11
2023-03-26T19:33:36.474Z,40.88
2023-03-26T19:36:29.564Z,41.15
2023-03-26T19:39:27.238Z,41.14
2023-03-26T19:42:27.623Z,41.25
2023-03-26T19:45:36.061Z,41.70
2023-03-26T19:48:25.752Z,41.64
2023-03-26T19:51:36.136Z,41.71
2023-03-26T19:54:25.201Z,41.89
2023-03-26T19:57:15.692Z,41.77
2023-03-26T20:00:13.692Z,41.99
2023-03-26T20:03:04.110Z,41.94
2023-03-26T20:05:53.081Z,41.86
2023-03-26T20:08:43.105Z,41.60
2023-03-26T20:11:34.313Z,41.20
2023-03-26T20:14:25.967Z,41.63
2023-03-26T20:17:17.933Z,41.49
2023-03-26T20:20:12.135Z,41.70
2023-03-26T20:23:01.541Z,41.50
2023-03-26T20:25:53.865Z,41.63
2023-03-26T20:28:48.437Z,41.58
2023-03-26T20:31:38.319Z,41.78
2023-03-26T20:34:28.727Z,41.52
2023-03-26T20:37:18.005Z,42.22
2023-03-26T20:40:09.276Z,42.28
2023-03-26T20:42:57.933Z,42.11
2023-03-26T20:45:46.832Z,42.32
2023-03-26T20:48:35.606Z,41.34
2023-03-26T20:51:28.486Z,41.29
2023-03-26T20:54:20.207Z,41.26
2023-03-26T20:57:11.987Z,40.94
2023-03-26T21:00:01.403Z,40.80
2023-03-26T21:02:53.261Z,40.57
2023-03-26T21:05:42.919Z,40.40
2023-03-26T21:08:35.616Z,40.31
2023-03-26T21:11:41.658Z,40.62
2023-03-26T21:14:34.426Z,40.68
2023-03-26T21:17:24.582Z,40.76
2023-03-26T21:20:16.710Z,40.22
2023-03-26T21:23:09.931Z,41.09
2023-03-26T21:26:06.454Z,41.20
2023-03-26T21:28:55.350Z,41.25
2023-03-26T21:31:44.610Z,41.86
2023-03-26T21:34:34.223Z,42.11
2023-03-26T21:37:24.185Z,42.12
2023-03-26T21:40:17.944Z,42.32
2023-03-26T21:43:08.986Z,42.19
2023-03-26T21:45:58.436Z,42.23
2023-03-26T21:48:48.071Z,42.44
2023-03-26T21:51:37.921Z,42.59
2023-03-26T21:54:28.468Z,42.58
2023-03-26T21:57:42.494Z,42.12
2023-03-26T22:00:43.465Z,42.71
2023-03-26T22:03:36.474Z,42.86
2023-03-26T22:06:31.325Z,42.62
2023-03-26T22:09:26.577Z,42.81
2023-03-26T22:12:25.524Z,42.88
2023-03-26T22:15:14.773Z,42.75
2023-03-26T22:18:07.197Z,42.86
2023-03-26T22:20:56.090Z,43.08
2023-03-26T22:23:50.046Z,42.75
2023-03-26T22:26:38.965Z,42.75
2023-03-26T22:29:27.942Z,42.70
2023-03-26T22:32:16.697Z,43.09
2023-03-26T22:35:07.380Z,43.13
2023-03-26T22:38:00.865Z,42.92
2023-03-26T22:40:59.739Z,42.99
2023-03-26T22:43:48.377Z,42.70
2023-03-26T22:46:38.713Z,42.86
2023-03-26T22:49:30.102Z,42.98
2023-03-26T22:52:20.372Z,42.86
2023-03-26T22:55:10.999Z,43.04
2023-03-26T22:57:59.652Z,43.11
2023-03-26T23:00:51.698Z,43.20
2023-03-26T23:03:41.604Z,43.35
2023-03-26T23:06:31.552Z,42.79
2023-03-26T23:09:21.870Z,43.02
2023-03-26T23:12:10.703Z,42.90
2023-03-26T23:14:59.409Z,43.11
2023-03-26T23:17:54.177Z,42.85
2023-03-26T23:20:43.472Z,43.00
2023-03-26T23:23:33.755Z,43.03
2023-03-26T23:26:24.150Z,43.11
2023-03-26T23:29:13.840Z,43.00
2023-03-26T23:32:02.806Z,43.17
2023-03-26T23:34:52.084Z,43.08
2023-03-26T23:37:42.535Z,43.03
2023-03-26T23:40:32.300Z,43.22
2023-03-26T23:43:22.660Z,43.04
2023-03-26T23:46:17.728Z,43.12
2023-03-26T23:49:07.427Z,43.08
2023-03-26T23:51:56.065Z,43.10
2023-03-26T23:54:44.663Z,42.98
2023-03-26T23:57:35.399Z,42.98
